sensor_id;sensor_type;location;lat;lon;timestamp;P1;durP1;ratioP1;P2;durP2;ratioP2
66581;SDS011;53438;48.898;2.308;2023-05-02T03:01:21;16.85;;;8.77;;
66581;SDS011;53438;48.898;2.308;2023-05-02T03:03:48;21.57;;;9.13;;
66581;SDS011;53438;48.898;2.308;2023-05-02T03:06:16;20.40;;;9.30;;
66581;SDS011;53438;48.898;2.308;2023-05-02T03:08:42;17.92;;;9.23;;
66581;SDS011;53438;48.898;2.308;2023-05-02T03:11:08;20.17;;;10.35;;
66581;SDS011;53438;48.898;2.308;2023-05-02T03:13:37;20.40;;;9.07;;
66581;SDS011;53438;48.898;2.308;2023-05-02T03:19:16;28.00;;;11.43;;
66581;SDS011;53438;48.898;2.308;2023-05-02T03:21:41;21.88;;;10.00;;
66581;SDS011;53438;48.898;2.308;2023-05-02T03:24:07;23.13;;;10.38;;
66581;SDS011;53438;48.898;2.308;2023-05-02T03:26:32;25.67;;;10.47;;
66581;SDS011;53438;48.898;2.308;2023-05-02T03:28:58;23.47;;;11.33;;
66581;SDS011;53438;48.898;2.308;2023-05-02T03:31:23;23.67;;;11.20;;
66581;SDS011;53438;48.898;2.308;2023-05-02T03:33:48;16.47;;;9.20;;
66581;SDS011;53438;48.898;2.308;2023-05-02T03:36:14;23.42;;;10.45;;
66581;SDS011;53438;48.898;2.308;2023-05-02T03:38:40;23.17;;;11.10;;
66581;SDS011;53438;48.898;2.308;2023-05-02T03:41:05;23.05;;;10.80;;
66581;SDS011;53438;48.898;2.308;2023-05-02T03:43:31;24.70;;;11.13;;
66581;SDS011;53438;48.898;2.308;2023-05-02T03:45:56;24.07;;;11.13;;
66581;SDS011;53438;48.898;2.308;2023-05-02T03:48:29;21.38;;;10.60;;
66581;SDS011;53438;48.898;2.308;2023-05-02T03:50:54;26.50;;;10.63;;
66581;SDS011;53438;48.898;2.308;2023-05-02T03:53:20;21.73;;;10.23;;
66581;SDS011;53438;48.898;2.308;2023-05-02T03:55:45;22.03;;;10.10;;
66581;SDS011;53438;48.898;2.308;2023-05-02T03:58:11;25.60;;;10.93;;
66581;SDS011;53438;48.898;2.308;2023-05-02T04:00:36;23.33;;;11.13;;
66581;SDS011;53438;48.898;2.308;2023-05-02T04:03:02;27.88;;;11.40;;
66581;SDS011;53438;48.898;2.308;2023-05-02T04:05:28;27.88;;;11.98;;
66581;SDS011;53438;48.898;2.308;2023-05-02T04:07:56;25.57;;;11.33;;
66581;SDS011;53438;48.898;2.308;2023-05-02T04:10:22;27.45;;;11.90;;
66581;SDS011;53438;48.898;2.308;2023-05-02T04:12:47;25.10;;;12.30;;
66581;SDS011;53438;48.898;2.308;2023-05-02T04:15:13;27.33;;;11.73;;
66581;SDS011;53438;48.898;2.308;2023-05-02T04:17:38;27.30;;;11.47;;
66581;SDS011;53438;48.898;2.308;2023-05-02T04:20:04;22.50;;;10.80;;
66581;SDS011;53438;48.898;2.308;2023-05-02T04:22:30;24.27;;;11.35;;
66581;SDS011;53438;48.898;2.308;2023-05-02T04:24:57;26.73;;;11.73;;
66581;SDS011;53438;48.898;2.308;2023-05-02T04:27:22;24.52;;;11.23;;
66581;SDS011;53438;48.898;2.308;2023-05-02T04:29:48;27.47;;;12.03;;
66581;SDS011;53438;48.898;2.308;2023-05-02T04:32:17;27.30;;;11.88;;
66581;SDS011;53438;48.898;2.308;2023-05-02T04:34:42;24.00;;;12.47;;
66581;SDS011;53438;48.898;2.308;2023-05-02T04:37:08;32.07;;;13.30;;
66581;SDS011;53438;48.898;2.308;2023-05-02T04:39:33;32.37;;;13.30;;
66581;SDS011;53438;48.898;2.308;2023-05-02T04:41:59;28.13;;;13.13;;
66581;SDS011;53438;48.898;2.308;2023-05-02T04:44:25;29.97;;;12.17;;
66581;SDS011;53438;48.898;2.308;2023-05-02T04:46:50;24.20;;;11.90;;
66581;SDS011;53438;48.898;2.308;2023-05-02T04:49:16;29.43;;;13.30;;
66581;SDS011;53438;48.898;2.308;2023-05-02T04:51:41;28.83;;;12.63;;
66581;SDS011;53438;48.898;2.308;2023-05-02T04:54:06;22.47;;;11.20;;
66581;SDS011;53438;48.898;2.308;2023-05-02T04:56:32;29.13;;;13.00;;
66581;SDS011;53438;48.898;2.308;2023-05-02T04:58:57;28.10;;;12.53;;
66581;SDS011;53438;48.898;2.308;2023-05-02T05:01:23;28.47;;;12.60;;
66581;SDS011;53438;48.898;2.308;2023-05-02T05:03:51;26.92;;;12.88;;
66581;SDS011;53438;48.898;2.308;2023-05-02T05:06:17;32.53;;;13.98;;
66581;SDS011;53438;48.898;2.308;2023-05-02T05:08:43;32.38;;;14.70;;
66581;SDS011;53438;48.898;2.308;2023-05-02T05:11:09;34.17;;;14.18;;
66581;SDS011;53438;48.898;2.308;2023-05-02T05:13:35;39.37;;;15.97;;
66581;SDS011;53438;48.898;2.308;2023-05-02T05:16:01;34.05;;;14.77;;
66581;SDS011;53438;48.898;2.308;2023-05-02T05:18:27;36.22;;;15.85;;
66581;SDS011;53438;48.898;2.308;2023-05-02T05:20:53;34.10;;;16.10;;
66581;SDS011;53438;48.898;2.308;2023-05-02T05:23:18;34.50;;;15.40;;
66581;SDS011;53438;48.898;2.308;2023-05-02T05:25:43;37.80;;;15.70;;
66581;SDS011;53438;48.898;2.308;2023-05-02T05:28:09;30.40;;;15.37;;
66581;SDS011;53438;48.898;2.308;2023-05-02T05:30:35;37.28;;;16.00;;
66581;SDS011;53438;48.898;2.308;2023-05-02T05:33:00;36.50;;;15.23;;
66581;SDS011;53438;48.898;2.308;2023-05-02T05:35:25;33.20;;;14.07;;
66581;SDS011;53438;48.898;2.308;2023-05-02T05:37:51;31.63;;;15.10;;
66581;SDS011;53438;48.898;2.308;2023-05-02T05:40:17;32.50;;;15.00;;
66581;SDS011;53438;48.898;2.308;2023-05-02T05:42:42;41.67;;;17.40;;
66581;SDS011;53438;48.898;2.308;2023-05-02T05:45:08;36.63;;;16.63;;
66581;SDS011;53438;48.898;2.308;2023-05-02T05:47:34;32.53;;;13.57;;
66581;SDS011;53438;48.898;2.308;2023-05-02T05:49:59;36.13;;;14.60;;
66581;SDS011;53438;48.898;2.308;2023-05-02T05:52:25;30.48;;;14.88;;
66581;SDS011;53438;48.898;2.308;2023-05-02T05:54:53;38.97;;;15.53;;
66581;SDS011;53438;48.898;2.308;2023-05-02T05:57:20;33.35;;;15.48;;
66581;SDS011;53438;48.898;2.308;2023-05-02T05:59:46;34.90;;;14.60;;
66581;SDS011;53438;48.898;2.308;2023-05-02T06:02:12;32.07;;;14.53;;
66581;SDS011;53438;48.898;2.308;2023-05-02T06:04:39;30.20;;;13.82;;
66581;SDS011;53438;48.898;2.308;2023-05-02T06:07:04;32.90;;;14.87;;
66581;SDS011;53438;48.898;2.308;2023-05-02T06:09:29;35.50;;;15.03;;
66581;SDS011;53438;48.898;2.308;2023-05-02T06:11:55;35.40;;;15.45;;
66581;SDS011;53438;48.898;2.308;2023-05-02T06:14:20;35.07;;;14.43;;
66581;SDS011;53438;48.898;2.308;2023-05-02T06:16:45;31.60;;;14.37;;
66581;SDS011;53438;48.898;2.308;2023-05-02T06:19:11;30.50;;;14.07;;
66581;SDS011;53438;48.898;2.308;2023-05-02T06:21:36;36.67;;;14.77;;
66581;SDS011;53438;48.898;2.308;2023-05-02T06:24:02;31.17;;;14.47;;
66581;SDS011;53438;48.898;2.308;2023-05-02T06:26:27;34.88;;;14.52;;
66581;SDS011;53438;48.898;2.308;2023-05-02T06:28:56;34.27;;;15.27;;
66581;SDS011;53438;48.898;2.308;2023-05-02T06:31:21;34.00;;;14.80;;
66581;SDS011;53438;48.898;2.308;2023-05-02T06:33:46;39.27;;;15.40;;
66581;SDS011;53438;48.898;2.308;2023-05-02T06:36:12;39.43;;;16.70;;
66581;SDS011;53438;48.898;2.308;2023-05-02T06:38:37;43.07;;;16.20;;
66581;SDS011;53438;48.898;2.308;2023-05-02T06:41:02;36.80;;;15.07;;
66581;SDS011;53438;48.898;2.308;2023-05-02T06:43:28;41.57;;;15.87;;
66581;SDS011;53438;48.898;2.308;2023-05-02T06:45:54;38.97;;;15.50;;
66581;SDS011;53438;48.898;2.308;2023-05-02T06:48:20;32.92;;;14.70;;
66581;SDS011;53438;48.898;2.308;2023-05-02T06:50:46;34.53;;;15.45;;
66581;SDS011;53438;48.898;2.308;2023-05-02T06:53:12;35.97;;;16.02;;
66581;SDS011;53438;48.898;2.308;2023-05-02T06:55:38;36.30;;;16.57;;
66581;SDS011;53438;48.898;2.308;2023-05-02T06:58:03;37.20;;;16.60;;
66581;SDS011;53438;48.898;2.308;2023-05-02T07:00:28;36.50;;;16.20;;
66581;SDS011;53438;48.898;2.308;2023-05-02T07:02:54;42.03;;;17.50;;
66581;SDS011;53438;48.898;2.308;2023-05-02T07:05:20;39.73;;;17.77;;
66581;SDS011;53438;48.898;2.308;2023-05-02T07:07:45;36.88;;;15.38;;
66581;SDS011;53438;48.898;2.308;2023-05-02T07:10:11;40.50;;;17.87;;
66581;SDS011;53438;48.898;2.308;2023-05-02T07:12:36;37.17;;;17.07;;
66581;SDS011;53438;48.898;2.308;2023-05-02T07:15:03;44.72;;;16.88;;
66581;SDS011;53438;48.898;2.308;2023-05-02T07:17:30;38.67;;;17.10;;
66581;SDS011;53438;48.898;2.308;2023-05-02T07:19:56;39.67;;;17.52;;
66581;SDS011;53438;48.898;2.308;2023-05-02T07:22:21;39.63;;;17.90;;
66581;SDS011;53438;48.898;2.308;2023-05-02T07:24:46;33.20;;;15.30;;
66581;SDS011;53438;48.898;2.308;2023-05-02T07:27:12;39.57;;;16.17;;
66581;SDS011;53438;48.898;2.308;2023-05-02T07:29:37;39.65;;;15.90;;
66581;SDS011;53438;48.898;2.308;2023-05-02T07:32:03;34.50;;;15.23;;
66581;SDS011;53438;48.898;2.308;2023-05-02T07:34:29;35.77;;;14.93;;
66581;SDS011;53438;48.898;2.308;2023-05-02T07:36:54;30.60;;;14.55;;
66581;SDS011;53438;48.898;2.308;2023-05-02T07:39:20;34.53;;;14.87;;
66581;SDS011;53438;48.898;2.308;2023-05-02T07:41:46;34.97;;;15.77;;
66581;SDS011;53438;48.898;2.308;2023-05-02T07:44:14;28.13;;;13.90;;
66581;SDS011;53438;48.898;2.308;2023-05-02T07:46:40;31.47;;;14.00;;
66581;SDS011;53438;48.898;2.308;2023-05-02T07:49:06;29.27;;;15.98;;
66581;SDS011;53438;48.898;2.308;2023-05-02T07:51:31;35.80;;;15.80;;
66581;SDS011;53438;48.898;2.308;2023-05-02T07:53:56;33.57;;;14.97;;
66581;SDS011;53438;48.898;2.308;2023-05-02T07:56:22;34.53;;;15.73;;
66581;SDS011;53438;48.898;2.308;2023-05-02T07:58:48;35.13;;;14.93;;
66581;SDS011;53438;48.898;2.308;2023-05-02T08:01:15;33.17;;;15.32;;
66581;SDS011;53438;48.898;2.308;2023-05-02T08:03:41;35.37;;;15.37;;
66581;SDS011;53438;48.898;2.308;2023-05-02T08:06:06;29.10;;;14.73;;
66581;SDS011;53438;48.898;2.308;2023-05-02T08:08:33;30.10;;;14.40;;
66581;SDS011;53438;48.898;2.308;2023-05-02T08:10:59;32.28;;;13.60;;
66581;SDS011;53438;48.898;2.308;2023-05-02T08:13:25;30.00;;;14.50;;
66581;SDS011;53438;48.898;2.308;2023-05-02T08:15:51;31.40;;;13.43;;
66581;SDS011;53438;48.898;2.308;2023-05-02T08:18:20;27.58;;;11.73;;
66581;SDS011;53438;48.898;2.308;2023-05-02T08:20:45;25.17;;;11.60;;
66581;SDS011;53438;48.898;2.308;2023-05-02T08:23:12;30.33;;;12.57;;
66581;SDS011;53438;48.898;2.308;2023-05-02T08:25:37;28.50;;;13.27;;
66581;SDS011;53438;48.898;2.308;2023-05-02T08:28:02;25.87;;;12.37;;
66581;SDS011;53438;48.898;2.308;2023-05-02T08:30:28;23.80;;;11.30;;
66581;SDS011;53438;48.898;2.308;2023-05-02T08:32:53;21.90;;;11.17;;
66581;SDS011;53438;48.898;2.308;2023-05-02T08:35:20;21.95;;;11.35;;
66581;SDS011;53438;48.898;2.308;2023-05-02T08:37:45;19.67;;;11.40;;
66581;SDS011;53438;48.898;2.308;2023-05-02T08:40:11;26.37;;;11.03;;
66581;SDS011;53438;48.898;2.308;2023-05-02T08:42:40;20.95;;;10.32;;
66581;SDS011;53438;48.898;2.308;2023-05-02T08:45:07;23.05;;;10.95;;
66581;SDS011;53438;48.898;2.308;2023-05-02T08:47:33;19.67;;;9.85;;
66581;SDS011;53438;48.898;2.308;2023-05-02T08:50:00;16.95;;;9.60;;
66581;SDS011;53438;48.898;2.308;2023-05-02T08:52:25;23.23;;;11.07;;
66581;SDS011;53438;48.898;2.308;2023-05-02T08:54:51;19.73;;;10.30;;
66581;SDS011;53438;48.898;2.308;2023-05-02T08:57:18;23.60;;;12.07;;
66581;SDS011;53438;48.898;2.308;2023-05-02T08:59:43;17.67;;;9.98;;
66581;SDS011;53438;48.898;2.308;2023-05-02T09:02:16;20.57;;;11.77;;
66581;SDS011;53438;48.898;2.308;2023-05-02T09:05:05;20.90;;;10.48;;
66581;SDS011;53438;48.898;2.308;2023-05-02T09:07:44;22.53;;;11.60;;
66581;SDS011;53438;48.898;2.308;2023-05-02T09:10:12;15.00;;;8.90;;
66581;SDS011;53438;48.898;2.308;2023-05-02T09:12:38;15.25;;;10.07;;
66581;SDS011;53438;48.898;2.308;2023-05-02T09:15:13;18.10;;;9.57;;
66581;SDS011;53438;48.898;2.308;2023-05-02T09:17:41;18.30;;;9.60;;
66581;SDS011;53438;48.898;2.308;2023-05-02T09:20:08;16.20;;;9.40;;
66581;SDS011;53438;48.898;2.308;2023-05-02T09:22:35;18.02;;;10.52;;
66581;SDS011;53438;48.898;2.308;2023-05-02T09:25:01;27.87;;;13.67;;
66581;SDS011;53438;48.898;2.308;2023-05-02T09:27:26;26.35;;;13.32;;
66581;SDS011;53438;48.898;2.308;2023-05-02T09:29:52;27.65;;;14.02;;
66581;SDS011;53438;48.898;2.308;2023-05-02T09:32:45;28.67;;;15.47;;
66581;SDS011;53438;48.898;2.308;2023-05-02T09:35:12;32.08;;;16.55;;
66581;SDS011;53438;48.898;2.308;2023-05-02T09:37:38;29.95;;;15.15;;
66581;SDS011;53438;48.898;2.308;2023-05-02T09:40:05;35.43;;;18.20;;
66581;SDS011;53438;48.898;2.308;2023-05-02T09:42:33;28.80;;;15.02;;
66581;SDS011;53438;48.898;2.308;2023-05-02T09:45:00;27.98;;;14.43;;
66581;SDS011;53438;48.898;2.308;2023-05-02T09:47:25;24.87;;;14.20;;
66581;SDS011;53438;48.898;2.308;2023-05-02T09:49:51;27.00;;;14.33;;
66581;SDS011;53438;48.898;2.308;2023-05-02T09:52:17;25.00;;;13.13;;
66581;SDS011;53438;48.898;2.308;2023-05-02T09:54:45;26.73;;;14.13;;
66581;SDS011;53438;48.898;2.308;2023-05-02T09:57:11;24.48;;;12.82;;
66581;SDS011;53438;48.898;2.308;2023-05-02T09:59:37;28.10;;;13.97;;
66581;SDS011;53438;48.898;2.308;2023-05-02T10:02:04;24.92;;;14.55;;
66581;SDS011;53438;48.898;2.308;2023-05-02T10:04:32;24.67;;;12.80;;
66581;SDS011;53438;48.898;2.308;2023-05-02T10:06:58;21.88;;;12.27;;
66581;SDS011;53438;48.898;2.308;2023-05-02T10:09:24;25.45;;;13.35;;
66581;SDS011;53438;48.898;2.308;2023-05-02T10:11:53;19.60;;;11.57;;
66581;SDS011;53438;48.898;2.308;2023-05-02T10:14:20;21.17;;;12.10;;
66581;SDS011;53438;48.898;2.308;2023-05-02T10:17:00;20.93;;;11.50;;
66581;SDS011;53438;48.898;2.308;2023-05-02T10:19:52;20.00;;;11.23;;
66581;SDS011;53438;48.898;2.308;2023-05-02T10:22:21;18.92;;;12.32;;
66581;SDS011;53438;48.898;2.308;2023-05-02T10:24:48;19.63;;;11.98;;
66581;SDS011;53438;48.898;2.308;2023-05-02T10:27:14;20.38;;;11.68;;
66581;SDS011;53438;48.898;2.308;2023-05-02T10:29:39;23.97;;;13.03;;
66581;SDS011;53438;48.898;2.308;2023-05-02T10:32:06;24.95;;;14.40;;
66581;SDS011;53438;48.898;2.308;2023-05-02T10:34:32;25.30;;;13.57;;
66581;SDS011;53438;48.898;2.308;2023-05-02T10:37:01;23.65;;;13.95;;
66581;SDS011;53438;48.898;2.308;2023-05-02T10:39:27;21.60;;;12.50;;
66581;SDS011;53438;48.898;2.308;2023-05-02T10:41:53;22.33;;;11.73;;
66581;SDS011;53438;48.898;2.308;2023-05-02T10:49:57;19.20;;;12.55;;
66581;SDS011;53438;48.898;2.308;2023-05-02T10:52:34;21.80;;;12.90;;
66581;SDS011;53438;48.898;2.308;2023-05-02T10:55:20;19.97;;;11.90;;
66581;SDS011;53438;48.898;2.308;2023-05-02T11:00:25;19.58;;;11.38;;
66581;SDS011;53438;48.898;2.308;2023-05-02T11:02:54;16.42;;;10.77;;
66581;SDS011;53438;48.898;2.308;2023-05-02T11:05:23;18.43;;;10.57;;
66581;SDS011;53438;48.898;2.308;2023-05-02T11:08:01;17.35;;;9.30;;
66581;SDS011;53438;48.898;2.308;2023-05-02T11:10:41;15.13;;;9.82;;
66581;SDS011;53438;48.898;2.308;2023-05-02T11:13:06;15.37;;;9.30;;
66581;SDS011;53438;48.898;2.308;2023-05-02T11:20:36;15.18;;;9.15;;
66581;SDS011;53438;48.898;2.308;2023-05-02T11:25:38;14.70;;;9.27;;
66581;SDS011;53438;48.898;2.308;2023-05-02T11:28:06;14.20;;;8.48;;
66581;SDS011;53438;48.898;2.308;2023-05-02T11:30:36;15.77;;;9.37;;
66581;SDS011;53438;48.898;2.308;2023-05-02T11:35:30;21.30;;;11.87;;
66581;SDS011;53438;48.898;2.308;2023-05-02T11:38:03;19.58;;;10.68;;
66581;SDS011;53438;48.898;2.308;2023-05-02T11:40:37;16.05;;;9.73;;
66581;SDS011;53438;48.898;2.308;2023-05-02T11:43:15;16.35;;;9.27;;
66581;SDS011;53438;48.898;2.308;2023-05-02T11:45:42;14.93;;;9.38;;
66581;SDS011;53438;48.898;2.308;2023-05-02T11:48:07;15.10;;;9.17;;
66581;SDS011;53438;48.898;2.308;2023-05-02T11:50:44;16.73;;;9.73;;
66581;SDS011;53438;48.898;2.308;2023-05-02T11:53:16;16.27;;;8.60;;
66581;SDS011;53438;48.898;2.308;2023-05-02T11:55:50;16.27;;;8.10;;
66581;SDS011;53438;48.898;2.308;2023-05-02T11:58:20;15.27;;;8.68;;
66581;SDS011;53438;48.898;2.308;2023-05-02T12:00:47;17.15;;;9.15;;
66581;SDS011;53438;48.898;2.308;2023-05-02T12:03:20;15.23;;;8.77;;
66581;SDS011;53438;48.898;2.308;2023-05-02T12:05:46;15.75;;;9.13;;
66581;SDS011;53438;48.898;2.308;2023-05-02T12:08:30;13.80;;;9.10;;
66581;SDS011;53438;48.898;2.308;2023-05-02T12:10:56;15.00;;;9.70;;
66581;SDS011;53438;48.898;2.308;2023-05-02T12:13:23;12.63;;;7.97;;
66581;SDS011;53438;48.898;2.308;2023-05-02T12:15:49;14.15;;;8.07;;
66581;SDS011;53438;48.898;2.308;2023-05-02T12:18:17;10.10;;;7.05;;
66581;SDS011;53438;48.898;2.308;2023-05-02T12:20:43;11.87;;;7.77;;
66581;SDS011;53438;48.898;2.308;2023-05-02T12:23:09;13.40;;;9.00;;
66581;SDS011;53438;48.898;2.308;2023-05-02T12:25:37;13.73;;;7.70;;
66581;SDS011;53438;48.898;2.308;2023-05-02T12:28:03;13.35;;;7.80;;
66581;SDS011;53438;48.898;2.308;2023-05-02T12:30:29;11.97;;;7.60;;
66581;SDS011;53438;48.898;2.308;2023-05-02T12:32:59;12.85;;;6.93;;
66581;SDS011;53438;48.898;2.308;2023-05-02T12:35:26;11.05;;;7.63;;
66581;SDS011;53438;48.898;2.308;2023-05-02T12:37:52;12.20;;;6.90;;
66581;SDS011;53438;48.898;2.308;2023-05-02T12:40:18;13.52;;;7.68;;
66581;SDS011;53438;48.898;2.308;2023-05-02T12:43:00;10.02;;;6.53;;
66581;SDS011;53438;48.898;2.308;2023-05-02T12:45:31;10.10;;;7.68;;
66581;SDS011;53438;48.898;2.308;2023-05-02T12:48:02;8.73;;;6.73;;
66581;SDS011;53438;48.898;2.308;2023-05-02T12:50:52;9.35;;;7.10;;
66581;SDS011;53438;48.898;2.308;2023-05-02T12:56:08;8.90;;;5.35;;
66581;SDS011;53438;48.898;2.308;2023-05-02T13:01:10;9.17;;;5.23;;
66581;SDS011;53438;48.898;2.308;2023-05-02T13:03:35;8.95;;;5.53;;
66581;SDS011;53438;48.898;2.308;2023-05-02T13:06:01;9.38;;;6.15;;
66581;SDS011;53438;48.898;2.308;2023-05-02T13:08:28;8.57;;;5.20;;
66581;SDS011;53438;48.898;2.308;2023-05-02T13:10:53;8.13;;;4.70;;
66581;SDS011;53438;48.898;2.308;2023-05-02T13:13:18;8.10;;;4.97;;
66581;SDS011;53438;48.898;2.308;2023-05-02T13:15:44;9.83;;;4.93;;
66581;SDS011;53438;48.898;2.308;2023-05-02T13:18:09;9.73;;;5.60;;
66581;SDS011;53438;48.898;2.308;2023-05-02T13:20:34;8.67;;;5.87;;
66581;SDS011;53438;48.898;2.308;2023-05-02T13:23:00;7.97;;;4.43;;
66581;SDS011;53438;48.898;2.308;2023-05-02T13:25:25;9.40;;;4.87;;
66581;SDS011;53438;48.898;2.308;2023-05-02T13:27:50;9.40;;;5.85;;
66581;SDS011;53438;48.898;2.308;2023-05-02T13:30:16;8.57;;;5.33;;
66581;SDS011;53438;48.898;2.308;2023-05-02T13:32:41;9.53;;;5.33;;
66581;SDS011;53438;48.898;2.308;2023-05-02T13:35:07;8.13;;;5.50;;
66581;SDS011;53438;48.898;2.308;2023-05-02T13:37:33;11.15;;;5.65;;
66581;SDS011;53438;48.898;2.308;2023-05-02T13:39:58;10.33;;;5.40;;
66581;SDS011;53438;48.898;2.308;2023-05-02T13:42:24;8.10;;;4.17;;
66581;SDS011;53438;48.898;2.308;2023-05-02T13:44:49;9.32;;;5.43;;
66581;SDS011;53438;48.898;2.308;2023-05-02T13:47:15;7.97;;;5.20;;
66581;SDS011;53438;48.898;2.308;2023-05-02T13:49:40;10.47;;;5.23;;
66581;SDS011;53438;48.898;2.308;2023-05-02T13:52:05;7.87;;;4.40;;
66581;SDS011;53438;48.898;2.308;2023-05-02T13:54:31;9.75;;;5.30;;
66581;SDS011;53438;48.898;2.308;2023-05-02T13:56:56;6.53;;;3.88;;
66581;SDS011;53438;48.898;2.308;2023-05-02T13:59:22;10.60;;;5.17;;
66581;SDS011;53438;48.898;2.308;2023-05-02T14:01:47;9.03;;;4.73;;
66581;SDS011;53438;48.898;2.308;2023-05-02T14:04:13;9.15;;;4.68;;
66581;SDS011;53438;48.898;2.308;2023-05-02T14:06:38;6.57;;;4.40;;
66581;SDS011;53438;48.898;2.308;2023-05-02T14:09:04;7.03;;;4.77;;
66581;SDS011;53438;48.898;2.308;2023-05-02T14:11:29;10.23;;;4.47;;
66581;SDS011;53438;48.898;2.308;2023-05-02T14:13:54;9.80;;;4.27;;
66581;SDS011;53438;48.898;2.308;2023-05-02T14:16:22;7.05;;;4.30;;
66581;SDS011;53438;48.898;2.308;2023-05-02T14:18:48;6.22;;;3.53;;
66581;SDS011;53438;48.898;2.308;2023-05-02T14:21:14;6.80;;;3.95;;
66581;SDS011;53438;48.898;2.308;2023-05-02T14:23:40;6.63;;;3.67;;
66581;SDS011;53438;48.898;2.308;2023-05-02T14:26:06;8.45;;;4.03;;
66581;SDS011;53438;48.898;2.308;2023-05-02T14:28:31;5.97;;;3.60;;
66581;SDS011;53438;48.898;2.308;2023-05-02T14:30:56;6.13;;;3.70;;
66581;SDS011;53438;48.898;2.308;2023-05-02T14:33:21;10.97;;;4.53;;
66581;SDS011;53438;48.898;2.308;2023-05-02T14:35:47;5.30;;;3.60;;
66581;SDS011;53438;48.898;2.308;2023-05-02T14:38:13;7.38;;;3.80;;
66581;SDS011;53438;48.898;2.308;2023-05-02T14:40:38;6.63;;;3.23;;
66581;SDS011;53438;48.898;2.308;2023-05-02T14:43:04;6.00;;;3.60;;
66581;SDS011;53438;48.898;2.308;2023-05-02T14:45:30;7.38;;;3.97;;
66581;SDS011;53438;48.898;2.308;2023-05-02T14:47:55;8.77;;;3.90;;
66581;SDS011;53438;48.898;2.308;2023-05-02T14:50:22;7.63;;;4.03;;
66581;SDS011;53438;48.898;2.308;2023-05-02T14:52:47;9.53;;;3.60;;
66581;SDS011;53438;48.898;2.308;2023-05-02T14:55:13;6.43;;;3.83;;
66581;SDS011;53438;48.898;2.308;2023-05-02T14:57:38;6.97;;;4.00;;
66581;SDS011;53438;48.898;2.308;2023-05-02T15:00:04;6.40;;;3.13;;
66581;SDS011;53438;48.898;2.308;2023-05-02T15:02:33;5.45;;;3.45;;
66581;SDS011;53438;48.898;2.308;2023-05-02T15:04:59;6.53;;;3.73;;
66581;SDS011;53438;48.898;2.308;2023-05-02T15:07:25;7.18;;;3.70;;
66581;SDS011;53438;48.898;2.308;2023-05-02T15:09:50;7.07;;;4.33;;
66581;SDS011;53438;48.898;2.308;2023-05-02T15:12:16;9.10;;;4.00;;
66581;SDS011;53438;48.898;2.308;2023-05-02T15:14:41;6.87;;;3.50;;
66581;SDS011;53438;48.898;2.308;2023-05-02T15:17:07;5.73;;;3.33;;
66581;SDS011;53438;48.898;2.308;2023-05-02T15:19:32;4.97;;;3.20;;
66581;SDS011;53438;48.898;2.308;2023-05-02T15:21:57;6.40;;;3.43;;
66581;SDS011;53438;48.898;2.308;2023-05-02T15:24:23;6.67;;;3.30;;
66581;SDS011;53438;48.898;2.308;2023-05-02T15:26:48;5.47;;;3.20;;
66581;SDS011;53438;48.898;2.308;2023-05-02T15:29:15;5.33;;;3.10;;
66581;SDS011;53438;48.898;2.308;2023-05-02T15:31:40;6.82;;;3.25;;
66581;SDS011;53438;48.898;2.308;2023-05-02T15:34:05;6.55;;;3.25;;
66581;SDS011;53438;48.898;2.308;2023-05-02T15:36:31;5.20;;;3.17;;
66581;SDS011;53438;48.898;2.308;2023-05-02T15:38:56;7.40;;;4.20;;
66581;SDS011;53438;48.898;2.308;2023-05-02T15:41:23;6.40;;;3.77;;
66581;SDS011;53438;48.898;2.308;2023-05-02T15:43:49;6.05;;;2.95;;
66581;SDS011;53438;48.898;2.308;2023-05-02T15:46:14;6.07;;;3.23;;
66581;SDS011;53438;48.898;2.308;2023-05-02T15:48:40;6.30;;;3.13;;
66581;SDS011;53438;48.898;2.308;2023-05-02T15:51:05;5.23;;;2.83;;
66581;SDS011;53438;48.898;2.308;2023-05-02T15:53:33;5.38;;;2.60;;
66581;SDS011;53438;48.898;2.308;2023-05-02T15:55:59;5.25;;;2.85;;
66581;SDS011;53438;48.898;2.308;2023-05-02T15:58:24;5.30;;;3.20;;
66581;SDS011;53438;48.898;2.308;2023-05-02T16:00:49;6.33;;;3.00;;
66581;SDS011;53438;48.898;2.308;2023-05-02T16:03:16;6.65;;;2.92;;
66581;SDS011;53438;48.898;2.308;2023-05-02T16:05:41;5.10;;;2.80;;
66581;SDS011;53438;48.898;2.308;2023-05-02T16:08:07;3.77;;;2.50;;
66581;SDS011;53438;48.898;2.308;2023-05-02T16:10:32;9.57;;;3.93;;
66581;SDS011;53438;48.898;2.308;2023-05-02T16:13:00;4.70;;;2.90;;
66581;SDS011;53438;48.898;2.308;2023-05-02T16:15:25;5.77;;;2.80;;
66581;SDS011;53438;48.898;2.308;2023-05-02T16:17:51;8.30;;;3.40;;
66581;SDS011;53438;48.898;2.308;2023-05-02T16:20:17;6.18;;;3.30;;
66581;SDS011;53438;48.898;2.308;2023-05-02T16:22:46;5.43;;;3.10;;
66581;SDS011;53438;48.898;2.308;2023-05-02T16:25:13;5.17;;;3.27;;
66581;SDS011;53438;48.898;2.308;2023-05-02T16:27:40;5.80;;;3.05;;
66581;SDS011;53438;48.898;2.308;2023-05-02T16:30:05;6.70;;;3.17;;
66581;SDS011;53438;48.898;2.308;2023-05-02T16:32:31;6.33;;;3.00;;
66581;SDS011;53438;48.898;2.308;2023-05-02T16:34:57;5.45;;;3.15;;
66581;SDS011;53438;48.898;2.308;2023-05-02T16:37:22;8.37;;;3.07;;
66581;SDS011;53438;48.898;2.308;2023-05-02T16:39:48;6.93;;;3.37;;
66581;SDS011;53438;48.898;2.308;2023-05-02T16:42:13;5.67;;;3.30;;
66581;SDS011;53438;48.898;2.308;2023-05-02T16:44:39;5.03;;;3.10;;
66581;SDS011;53438;48.898;2.308;2023-05-02T16:47:05;4.87;;;2.50;;
66581;SDS011;53438;48.898;2.308;2023-05-02T16:49:31;5.33;;;2.43;;
66581;SDS011;53438;48.898;2.308;2023-05-02T16:51:57;6.93;;;3.20;;
66581;SDS011;53438;48.898;2.308;2023-05-02T16:54:22;6.60;;;2.60;;
66581;SDS011;53438;48.898;2.308;2023-05-02T16:56:48;5.17;;;2.50;;
66581;SDS011;53438;48.898;2.308;2023-05-02T16:59:13;6.95;;;2.47;;
66581;SDS011;53438;48.898;2.308;2023-05-02T17:01:39;6.00;;;2.97;;
66581;SDS011;53438;48.898;2.308;2023-05-02T17:04:04;5.00;;;2.50;;
66581;SDS011;53438;48.898;2.308;2023-05-02T17:06:31;5.53;;;2.70;;
66581;SDS011;53438;48.898;2.308;2023-05-02T17:08:56;4.03;;;3.03;;
66581;SDS011;53438;48.898;2.308;2023-05-02T17:11:22;6.90;;;2.80;;
66581;SDS011;53438;48.898;2.308;2023-05-02T17:13:49;5.22;;;3.17;;
66581;SDS011;53438;48.898;2.308;2023-05-02T17:16:17;4.95;;;2.85;;
66581;SDS011;53438;48.898;2.308;2023-05-02T17:18:44;6.05;;;3.15;;
66581;SDS011;53438;48.898;2.308;2023-05-02T17:21:10;8.52;;;3.20;;
66581;SDS011;53438;48.898;2.308;2023-05-02T17:23:36;6.03;;;3.30;;
66581;SDS011;53438;48.898;2.308;2023-05-02T17:26:02;6.35;;;3.13;;
66581;SDS011;53438;48.898;2.308;2023-05-02T17:28:29;5.75;;;3.00;;
66581;SDS011;53438;48.898;2.308;2023-05-02T17:30:55;7.53;;;3.60;;
66581;SDS011;53438;48.898;2.308;2023-05-02T17:33:23;11.73;;;6.30;;
66581;SDS011;53438;48.898;2.308;2023-05-02T17:35:50;5.15;;;2.85;;
66581;SDS011;53438;48.898;2.308;2023-05-02T17:38:16;6.00;;;3.22;;
66581;SDS011;53438;48.898;2.308;2023-05-02T17:40:41;7.53;;;2.87;;
66581;SDS011;53438;48.898;2.308;2023-05-02T17:43:07;12.10;;;4.03;;
66581;SDS011;53438;48.898;2.308;2023-05-02T17:45:32;7.13;;;3.40;;
66581;SDS011;53438;48.898;2.308;2023-05-02T17:47:58;8.30;;;3.40;;
66581;SDS011;53438;48.898;2.308;2023-05-02T17:50:23;7.93;;;3.27;;
66581;SDS011;53438;48.898;2.308;2023-05-02T17:52:48;7.00;;;3.83;;
66581;SDS011;53438;48.898;2.308;2023-05-02T17:55:14;6.55;;;3.60;;
66581;SDS011;53438;48.898;2.308;2023-05-02T17:57:40;6.97;;;3.50;;